CheckWX is a tool to help pilots better visualize weather data.  It is not intended as a substitute for an official pre-flight weather briefing.

07:10:26 UTC

KVIS TAF
Visalia Municipal Airport
Visalia, California, USA
KVIS 190520Z 1906/2006 30009KT P6SM SKC

Jun-19@
06:00 UTC

Jun-19 @ 06:00 UTC

Jun-20@
06:00 UTC

Jun-20 @ 06:00 UTC

KVIS 190520Z 1906/2006 30009KT P6SM SKC
Wind
  • 300° at 9 KTS
Cloud Levels
  • Clear skies